sensor_id;sensor_type;location;lat;lon;timestamp;pressure;altitude;pressure_sealevel;temperature;humidity
73383;BME280;61600;48.126;11.542;2023-02-20T00:00:28;96615.56;;;10.51;57.63
73383;BME280;61600;48.126;11.542;2023-02-20T00:02:54;96619.88;;;10.47;57.43
73383;BME280;61600;48.126;11.542;2023-02-20T00:05:20;96623.06;;;10.39;57.93
73383;BME280;61600;48.126;11.542;2023-02-20T00:07:50;96621.25;;;10.50;57.66
73383;BME280;61600;48.126;11.542;2023-02-20T00:10:16;96630.97;;;10.41;57.85
73383;BME280;61600;48.126;11.542;2023-02-20T00:12:42;96630.63;;;10.32;58.26
73383;BME280;61600;48.126;11.542;2023-02-20T00:15:09;96633.34;;;10.32;58.16
73383;BME280;61600;48.126;11.542;2023-02-20T00:17:38;96640.91;;;10.25;58.22
73383;BME280;61600;48.126;11.542;2023-02-20T00:20:04;96634.13;;;10.28;58.02
73383;BME280;61600;48.126;11.542;2023-02-20T00:22:33;96635.28;;;10.10;58.87
73383;BME280;61600;48.126;11.542;2023-02-20T00:24:59;96633.19;;;10.17;58.46
73383;BME280;61600;48.126;11.542;2023-02-20T00:27:24;96622.13;;;9.97;59.54
73383;BME280;61600;48.126;11.542;2023-02-20T00:29:50;96635.47;;;9.98;59.19
73383;BME280;61600;48.126;11.542;2023-02-20T00:32:16;96638.22;;;10.03;59.23
73383;BME280;61600;48.126;11.542;2023-02-20T00:34:41;96638.09;;;9.88;59.34
73383;BME280;61600;48.126;11.542;2023-02-20T00:37:07;96639.50;;;9.96;59.29
73383;BME280;61600;48.126;11.542;2023-02-20T00:39:33;96629.19;;;9.98;59.34
73383;BME280;61600;48.126;11.542;2023-02-20T00:41:59;96631.50;;;10.11;58.93
73383;BME280;61600;48.126;11.542;2023-02-20T00:44:25;96626.50;;;10.03;59.06
73383;BME280;61600;48.126;11.542;2023-02-20T00:46:51;96624.94;;;10.07;58.72
73383;BME280;61600;48.126;11.542;2023-02-20T00:49:16;96629.84;;;10.10;58.77
73383;BME280;61600;48.126;11.542;2023-02-20T00:51:45;96626.03;;;10.06;58.96
73383;BME280;61600;48.126;11.542;2023-02-20T00:54:11;96625.72;;;10.02;59.04
73383;BME280;61600;48.126;11.542;2023-02-20T00:56:37;96635.38;;;9.88;59.20
73383;BME280;61600;48.126;11.542;2023-02-20T00:59:06;96627.13;;;10.10;58.82
73383;BME280;61600;48.126;11.542;2023-02-20T01:01:32;96627.84;;;10.00;59.04
73383;BME280;61600;48.126;11.542;2023-02-20T01:03:58;96635.81;;;10.07;58.92
73383;BME280;61600;48.126;11.542;2023-02-20T01:06:26;96626.50;;;10.03;59.25
73383;BME280;61600;48.126;11.542;2023-02-20T01:08:52;96627.47;;;9.87;59.55
73383;BME280;61600;48.126;11.542;2023-02-20T01:11:17;96630.69;;;9.84;59.72
73383;BME280;61600;48.126;11.542;2023-02-20T01:13:43;96622.44;;;10.00;59.31
73383;BME280;61600;48.126;11.542;2023-02-20T01:16:09;96633.47;;;10.16;59.04
73383;BME280;61600;48.126;11.542;2023-02-20T01:18:35;96633.59;;;10.04;59.32
73383;BME280;61600;48.126;11.542;2023-02-20T01:21:01;96625.88;;;10.18;58.99
73383;BME280;61600;48.126;11.542;2023-02-20T01:23:29;96635.09;;;9.90;59.70
73383;BME280;61600;48.126;11.542;2023-02-20T01:25:55;96625.13;;;10.00;59.54
73383;BME280;61600;48.126;11.542;2023-02-20T01:28:21;96622.09;;;9.92;59.80
73383;BME280;61600;48.126;11.542;2023-02-20T01:30:49;96620.59;;;9.79;60.34
73383;BME280;61600;48.126;11.542;2023-02-20T01:33:15;96623.59;;;9.83;60.19
73383;BME280;61600;48.126;11.542;2023-02-20T01:35:41;96616.41;;;9.72;60.66
73383;BME280;61600;48.126;11.542;2023-02-20T01:38:09;96622.63;;;9.94;60.11
73383;BME280;61600;48.126;11.542;2023-02-20T01:40:35;96619.16;;;9.98;59.81
73383;BME280;61600;48.126;11.542;2023-02-20T01:43:01;96616.97;;;9.95;59.66
73383;BME280;61600;48.126;11.542;2023-02-20T01:45:34;96617.19;;;9.94;59.95
73383;BME280;61600;48.126;11.542;2023-02-20T01:48:04;96616.22;;;10.05;59.72
73383;BME280;61600;48.126;11.542;2023-02-20T01:50:35;96615.53;;;10.15;59.37
73383;BME280;61600;48.126;11.542;2023-02-20T01:53:14;96612.75;;;9.83;60.14
73383;BME280;61600;48.126;11.542;2023-02-20T01:58:43;96617.97;;;9.89;60.38
73383;BME280;61600;48.126;11.542;2023-02-20T02:01:10;96601.97;;;9.93;60.28
73383;BME280;61600;48.126;11.542;2023-02-20T02:03:41;96610.09;;;9.88;60.41
73383;BME280;61600;48.126;11.542;2023-02-20T02:06:12;96593.41;;;9.79;60.34
73383;BME280;61600;48.126;11.542;2023-02-20T02:08:40;96598.41;;;9.92;59.96
73383;BME280;61600;48.126;11.542;2023-02-20T02:11:18;96594.84;;;9.87;60.36
73383;BME280;61600;48.126;11.542;2023-02-20T02:13:45;96596.13;;;9.79;60.39
73383;BME280;61600;48.126;11.542;2023-02-20T02:22:18;96593.06;;;9.71;60.58
73383;BME280;61600;48.126;11.542;2023-02-20T02:28:06;96597.56;;;9.87;60.21
73383;BME280;61600;48.126;11.542;2023-02-20T02:30:51;96607.19;;;9.73;60.44
73383;BME280;61600;48.126;11.542;2023-02-20T02:39:24;96597.81;;;9.85;60.46
73383;BME280;61600;48.126;11.542;2023-02-20T02:46:58;96593.00;;;9.66;60.75
73383;BME280;61600;48.126;11.542;2023-02-20T02:52:07;96578.09;;;9.68;61.05
73383;BME280;61600;48.126;11.542;2023-02-20T02:54:34;96580.81;;;9.68;61.14
73383;BME280;61600;48.126;11.542;2023-02-20T02:57:22;96591.16;;;9.71;60.68
73383;BME280;61600;48.126;11.542;2023-02-20T02:59:51;96582.91;;;9.61;60.89
73383;BME280;61600;48.126;11.542;2023-02-20T03:02:18;96586.75;;;9.92;60.29
73383;BME280;61600;48.126;11.542;2023-02-20T03:04:49;96584.09;;;9.70;60.73
73383;BME280;61600;48.126;11.542;2023-02-20T03:07:16;96584.75;;;9.82;60.26
73383;BME280;61600;48.126;11.542;2023-02-20T03:12:13;96587.66;;;9.76;60.99
73383;BME280;61600;48.126;11.542;2023-02-20T03:14:51;96590.19;;;9.82;60.58
73383;BME280;61600;48.126;11.542;2023-02-20T03:20:45;96610.13;;;9.66;61.08
73383;BME280;61600;48.126;11.542;2023-02-20T03:23:28;96599.81;;;9.68;60.81
73383;BME280;61600;48.126;11.542;2023-02-20T03:26:09;96590.84;;;9.94;60.23
73383;BME280;61600;48.126;11.542;2023-02-20T03:28:45;96585.25;;;9.79;60.48
73383;BME280;61600;48.126;11.542;2023-02-20T03:31:30;96590.84;;;9.68;60.69
73383;BME280;61600;48.126;11.542;2023-02-20T03:34:18;96583.47;;;9.90;60.22
73383;BME280;61600;48.126;11.542;2023-02-20T03:37:12;96577.50;;;9.93;60.17
73383;BME280;61600;48.126;11.542;2023-02-20T03:40:03;96571.06;;;9.99;60.01
73383;BME280;61600;48.126;11.542;2023-02-20T03:42:52;96570.41;;;9.87;60.04
73383;BME280;61600;48.126;11.542;2023-02-20T03:45:41;96582.09;;;9.87;60.14
73383;BME280;61600;48.126;11.542;2023-02-20T03:48:13;96572.63;;;9.63;60.88
73383;BME280;61600;48.126;11.542;2023-02-20T03:50:40;96567.88;;;9.80;59.96
73383;BME280;61600;48.126;11.542;2023-02-20T03:53:25;96574.75;;;9.61;60.76
73383;BME280;61600;48.126;11.542;2023-02-20T03:55:53;96573.16;;;9.65;60.71
73383;BME280;61600;48.126;11.542;2023-02-20T03:58:23;96579.13;;;9.62;60.81
73383;BME280;61600;48.126;11.542;2023-02-20T04:00:52;96580.50;;;9.65;60.61
73383;BME280;61600;48.126;11.542;2023-02-20T04:03:22;96588.28;;;9.56;60.86
73383;BME280;61600;48.126;11.542;2023-02-20T04:05:52;96581.34;;;9.43;61.14
73383;BME280;61600;48.126;11.542;2023-02-20T04:11:08;96586.16;;;9.36;61.54
73383;BME280;61600;48.126;11.542;2023-02-20T04:13:36;96592.63;;;9.30;61.66
73383;BME280;61600;48.126;11.542;2023-02-20T04:16:03;96585.88;;;9.60;60.79
73383;BME280;61600;48.126;11.542;2023-02-20T04:18:30;96600.94;;;9.45;61.14
73383;BME280;61600;48.126;11.542;2023-02-20T04:20:58;96595.28;;;9.25;61.30
73383;BME280;61600;48.126;11.542;2023-02-20T04:23:26;96595.97;;;9.16;61.97
73383;BME280;61600;48.126;11.542;2023-02-20T04:26:06;96585.38;;;9.14;61.94
73383;BME280;61600;48.126;11.542;2023-02-20T04:28:33;96592.19;;;8.95;62.51
73383;BME280;61600;48.126;11.542;2023-02-20T04:31:19;96573.56;;;9.03;62.26
73383;BME280;61600;48.126;11.542;2023-02-20T04:33:45;96578.84;;;9.15;62.02
73383;BME280;61600;48.126;11.542;2023-02-20T04:36:11;96581.63;;;9.20;61.87
73383;BME280;61600;48.126;11.542;2023-02-20T04:38:40;96584.75;;;9.07;61.95
73383;BME280;61600;48.126;11.542;2023-02-20T04:41:06;96576.09;;;9.10;61.50
73383;BME280;61600;48.126;11.542;2023-02-20T04:43:31;96587.25;;;9.14;62.05
73383;BME280;61600;48.126;11.542;2023-02-20T04:45:57;96588.91;;;9.15;61.96
73383;BME280;61600;48.126;11.542;2023-02-20T04:48:23;96589.84;;;9.25;61.72
73383;BME280;61600;48.126;11.542;2023-02-20T04:50:48;96588.59;;;9.11;62.07
73383;BME280;61600;48.126;11.542;2023-02-20T04:53:14;96586.13;;;9.10;61.68
73383;BME280;61600;48.126;11.542;2023-02-20T04:55:40;96589.53;;;9.00;62.33
73383;BME280;61600;48.126;11.542;2023-02-20T04:58:06;96583.53;;;8.98;62.39
73383;BME280;61600;48.126;11.542;2023-02-20T05:00:32;96583.47;;;8.93;62.39
73383;BME280;61600;48.126;11.542;2023-02-20T05:02:57;96591.59;;;8.71;63.50
73383;BME280;61600;48.126;11.542;2023-02-20T05:05:26;96581.81;;;8.92;62.43
73383;BME280;61600;48.126;11.542;2023-02-20T05:07:57;96583.38;;;8.66;63.33
73383;BME280;61600;48.126;11.542;2023-02-20T05:10:27;96578.91;;;8.77;63.15
73383;BME280;61600;48.126;11.542;2023-02-20T05:12:54;96579.63;;;8.89;62.62
73383;BME280;61600;48.126;11.542;2023-02-20T05:15:21;96576.28;;;8.82;62.63
73383;BME280;61600;48.126;11.542;2023-02-20T05:17:47;96582.75;;;8.81;62.64
73383;BME280;61600;48.126;11.542;2023-02-20T05:20:13;96583.41;;;8.88;62.36
73383;BME280;61600;48.126;11.542;2023-02-20T05:22:39;96579.44;;;8.95;62.22
73383;BME280;61600;48.126;11.542;2023-02-20T05:25:06;96580.81;;;8.98;62.23
73383;BME280;61600;48.126;11.542;2023-02-20T05:27:32;96597.06;;;8.76;62.64
73383;BME280;61600;48.126;11.542;2023-02-20T05:30:01;96592.56;;;8.82;62.76
73383;BME280;61600;48.126;11.542;2023-02-20T05:32:29;96598.56;;;8.67;62.79
73383;BME280;61600;48.126;11.542;2023-02-20T05:34:55;96598.25;;;8.64;63.02
73383;BME280;61600;48.126;11.542;2023-02-20T05:37:23;96603.31;;;8.77;62.92
73383;BME280;61600;48.126;11.542;2023-02-20T05:39:51;96608.81;;;8.82;62.66
73383;BME280;61600;48.126;11.542;2023-02-20T05:42:18;96606.13;;;8.82;62.38
73383;BME280;61600;48.126;11.542;2023-02-20T05:44:44;96610.22;;;8.84;62.26
73383;BME280;61600;48.126;11.542;2023-02-20T05:47:12;96612.38;;;8.66;62.90
73383;BME280;61600;48.126;11.542;2023-02-20T05:49:38;96610.31;;;8.73;62.45
73383;BME280;61600;48.126;11.542;2023-02-20T05:52:04;96612.28;;;8.77;62.48
73383;BME280;61600;48.126;11.542;2023-02-20T05:54:37;96615.94;;;8.88;62.19
73383;BME280;61600;48.126;11.542;2023-02-20T05:57:07;96616.81;;;8.72;62.66
73383;BME280;61600;48.126;11.542;2023-02-20T05:59:33;96609.25;;;8.74;62.68
73383;BME280;61600;48.126;11.542;2023-02-20T06:02:02;96614.47;;;8.80;62.61
73383;BME280;61600;48.126;11.542;2023-02-20T06:04:29;96614.75;;;8.79;62.63
73383;BME280;61600;48.126;11.542;2023-02-20T06:06:55;96611.72;;;8.75;62.62
73383;BME280;61600;48.126;11.542;2023-02-20T06:09:24;96619.03;;;8.75;62.64
73383;BME280;61600;48.126;11.542;2023-02-20T06:11:51;96624.69;;;8.73;62.51
73383;BME280;61600;48.126;11.542;2023-02-20T06:14:19;96631.22;;;8.72;62.58
73383;BME280;61600;48.126;11.542;2023-02-20T06:16:46;96634.84;;;8.61;63.11
73383;BME280;61600;48.126;11.542;2023-02-20T06:19:17;96633.19;;;8.60;62.90
73383;BME280;61600;48.126;11.542;2023-02-20T06:21:45;96636.22;;;8.64;63.01
73383;BME280;61600;48.126;11.542;2023-02-20T06:24:11;96631.78;;;8.74;62.55
73383;BME280;61600;48.126;11.542;2023-02-20T06:26:41;96637.03;;;8.64;62.84
73383;BME280;61600;48.126;11.542;2023-02-20T06:29:08;96633.59;;;8.69;62.62
73383;BME280;61600;48.126;11.542;2023-02-20T06:31:34;96639.41;;;8.77;62.57
73383;BME280;61600;48.126;11.542;2023-02-20T06:34:00;96633.19;;;8.60;62.78
73383;BME280;61600;48.126;11.542;2023-02-20T06:36:29;96639.91;;;8.74;62.40
73383;BME280;61600;48.126;11.542;2023-02-20T06:38:56;96637.75;;;8.76;62.07
73383;BME280;61600;48.126;11.542;2023-02-20T06:41:22;96633.00;;;8.67;62.40
73383;BME280;61600;48.126;11.542;2023-02-20T06:43:48;96630.16;;;8.57;62.82
73383;BME280;61600;48.126;11.542;2023-02-20T06:46:14;96629.31;;;8.56;62.75
73383;BME280;61600;48.126;11.542;2023-02-20T06:48:48;96642.97;;;8.44;62.84
73383;BME280;61600;48.126;11.542;2023-02-20T06:51:23;96640.50;;;8.60;62.60
73383;BME280;61600;48.126;11.542;2023-02-20T06:53:59;96637.78;;;8.60;62.46
73383;BME280;61600;48.126;11.542;2023-02-20T06:56:27;96635.22;;;8.70;61.97
73383;BME280;61600;48.126;11.542;2023-02-20T06:58:54;96638.09;;;8.63;61.98
73383;BME280;61600;48.126;11.542;2023-02-20T07:01:23;96642.06;;;8.56;62.63
73383;BME280;61600;48.126;11.542;2023-02-20T07:03:51;96637.38;;;8.68;62.07
73383;BME280;61600;48.126;11.542;2023-02-20T07:06:24;96635.81;;;8.72;61.98
73383;BME280;61600;48.126;11.542;2023-02-20T07:08:50;96643.19;;;8.76;61.91
73383;BME280;61600;48.126;11.542;2023-02-20T07:11:18;96644.53;;;8.57;62.44
73383;BME280;61600;48.126;11.542;2023-02-20T07:13:45;96651.00;;;8.73;61.32
73383;BME280;61600;48.126;11.542;2023-02-20T07:16:11;96644.09;;;8.82;61.55
73383;BME280;61600;48.126;11.542;2023-02-20T07:18:37;96647.31;;;8.79;61.18
73383;BME280;61600;48.126;11.542;2023-02-20T07:21:02;96649.38;;;8.72;61.58
73383;BME280;61600;48.126;11.542;2023-02-20T07:23:28;96654.13;;;8.81;61.39
73383;BME280;61600;48.126;11.542;2023-02-20T07:25:54;96654.28;;;8.75;61.38
73383;BME280;61600;48.126;11.542;2023-02-20T07:28:20;96663.63;;;8.84;61.12
73383;BME280;61600;48.126;11.542;2023-02-20T07:30:47;96661.00;;;8.89;61.05
73383;BME280;61600;48.126;11.542;2023-02-20T07:33:17;96658.84;;;9.08;60.57
73383;BME280;61600;48.126;11.542;2023-02-20T07:35:44;96654.38;;;9.18;60.20
73383;BME280;61600;48.126;11.542;2023-02-20T07:38:13;96658.78;;;9.24;60.01
73383;BME280;61600;48.126;11.542;2023-02-20T07:40:38;96654.81;;;9.32;59.80
73383;BME280;61600;48.126;11.542;2023-02-20T07:43:04;96651.94;;;9.43;59.53
73383;BME280;61600;48.126;11.542;2023-02-20T07:45:32;96644.28;;;9.35;59.48
73383;BME280;61600;48.126;11.542;2023-02-20T07:48:01;96650.81;;;9.39;59.49
73383;BME280;61600;48.126;11.542;2023-02-20T07:50:26;96648.47;;;9.26;59.86
73383;BME280;61600;48.126;11.542;2023-02-20T07:52:55;96641.28;;;9.15;59.97
73383;BME280;61600;48.126;11.542;2023-02-20T07:55:21;96642.41;;;9.19;59.98
73383;BME280;61600;48.126;11.542;2023-02-20T07:57:47;96631.94;;;9.28;59.56
73383;BME280;61600;48.126;11.542;2023-02-20T08:00:15;96636.50;;;8.84;60.03
73383;BME280;61600;48.126;11.542;2023-02-20T08:02:42;96618.88;;;9.25;59.46
73383;BME280;61600;48.126;11.542;2023-02-20T08:05:10;96622.28;;;9.15;59.60
73383;BME280;61600;48.126;11.542;2023-02-20T08:07:36;96625.31;;;9.19;58.99
73383;BME280;61600;48.126;11.542;2023-02-20T08:10:03;96621.56;;;9.46;58.39
73383;BME280;61600;48.126;11.542;2023-02-20T08:12:32;96610.22;;;9.49;58.25
73383;BME280;61600;48.126;11.542;2023-02-20T08:15:00;96602.63;;;9.78;57.03
73383;BME280;61600;48.126;11.542;2023-02-20T08:17:25;96612.94;;;9.76;56.90
73383;BME280;61600;48.126;11.542;2023-02-20T08:19:51;96604.03;;;9.81;56.91
73383;BME280;61600;48.126;11.542;2023-02-20T08:22:19;96604.69;;;9.93;56.67
73383;BME280;61600;48.126;11.542;2023-02-20T08:24:45;96616.78;;;9.80;56.39
73383;BME280;61600;48.126;11.542;2023-02-20T08:27:11;96606.78;;;9.86;56.79
73383;BME280;61600;48.126;11.542;2023-02-20T08:29:37;96596.16;;;10.11;55.98
73383;BME280;61600;48.126;11.542;2023-02-20T08:32:04;96596.53;;;9.93;56.22
73383;BME280;61600;48.126;11.542;2023-02-20T08:34:30;96606.53;;;10.14;55.80
73383;BME280;61600;48.126;11.542;2023-02-20T08:36:56;96598.03;;;10.11;55.59
73383;BME280;61600;48.126;11.542;2023-02-20T08:39:25;96595.53;;;9.99;55.78
73383;BME280;61600;48.126;11.542;2023-02-20T08:41:51;96593.78;;;10.15;55.05
73383;BME280;61600;48.126;11.542;2023-02-20T08:44:17;96591.41;;;10.23;55.08
73383;BME280;61600;48.126;11.542;2023-02-20T08:46:48;96591.53;;;10.12;55.14
73383;BME280;61600;48.126;11.542;2023-02-20T08:49:15;96573.69;;;10.58;54.44
73383;BME280;61600;48.126;11.542;2023-02-20T08:51:45;96572.75;;;10.42;54.77
73383;BME280;61600;48.126;11.542;2023-02-20T08:54:12;96583.13;;;10.45;54.40
73383;BME280;61600;48.126;11.542;2023-02-20T08:56:49;96581.66;;;10.27;54.95
73383;BME280;61600;48.126;11.542;2023-02-20T08:59:16;96572.75;;;10.42;54.81
73383;BME280;61600;48.126;11.542;2023-02-20T09:01:42;96574.72;;;10.46;54.87
73383;BME280;61600;48.126;11.542;2023-02-20T09:04:09;96582.34;;;10.49;54.75
73383;BME280;61600;48.126;11.542;2023-02-20T09:06:36;96570.94;;;10.52;54.79
73383;BME280;61600;48.126;11.542;2023-02-20T09:09:02;96567.84;;;10.39;55.15
73383;BME280;61600;48.126;11.542;2023-02-20T09:11:32;96547.03;;;10.60;54.83
73383;BME280;61600;48.126;11.542;2023-02-20T09:13:58;96544.38;;;10.70;54.44
73383;BME280;61600;48.126;11.542;2023-02-20T09:16:24;96542.72;;;10.64;54.52
73383;BME280;61600;48.126;11.542;2023-02-20T09:18:50;96546.06;;;10.76;54.27
73383;BME280;61600;48.126;11.542;2023-02-20T09:21:17;96529.72;;;10.76;54.27
73383;BME280;61600;48.126;11.542;2023-02-20T09:23:44;96531.94;;;10.79;54.20
73383;BME280;61600;48.126;11.542;2023-02-20T09:26:10;96537.16;;;10.95;53.92
73383;BME280;61600;48.126;11.542;2023-02-20T09:28:38;96538.56;;;11.03;53.68
73383;BME280;61600;48.126;11.542;2023-02-20T09:31:05;96536.44;;;11.20;53.24
73383;BME280;61600;48.126;11.542;2023-02-20T09:33:31;96542.75;;;11.31;52.98
73383;BME280;61600;48.126;11.542;2023-02-20T09:35:57;96543.53;;;11.26;52.88
73383;BME280;61600;48.126;11.542;2023-02-20T09:38:23;96546.81;;;11.18;52.95
73383;BME280;61600;48.126;11.542;2023-02-20T09:40:57;96555.25;;;11.27;52.96
73383;BME280;61600;48.126;11.542;2023-02-20T09:46:21;96544.41;;;11.42;52.69
73383;BME280;61600;48.126;11.542;2023-02-20T09:49:12;96536.09;;;11.99;51.54
73383;BME280;61600;48.126;11.542;2023-02-20T09:51:45;96520.25;;;11.71;51.74
73383;BME280;61600;48.126;11.542;2023-02-20T09:54:36;96521.66;;;11.98;51.58
73383;BME280;61600;48.126;11.542;2023-02-20T09:57:11;96510.19;;;11.81;51.39
73383;BME280;61600;48.126;11.542;2023-02-20T09:59:41;96494.06;;;11.60;51.89
73383;BME280;61600;48.126;11.542;2023-02-20T10:04:46;96503.06;;;11.75;51.77
73383;BME280;61600;48.126;11.542;2023-02-20T10:07:24;96501.19;;;12.01;51.08
73383;BME280;61600;48.126;11.542;2023-02-20T10:09:51;96505.53;;;12.07;51.01
73383;BME280;61600;48.126;11.542;2023-02-20T10:20:36;96458.44;;;12.91;47.95
73383;BME280;61600;48.126;11.542;2023-02-20T10:28:48;96476.78;;;12.70;47.76
73383;BME280;61600;48.126;11.542;2023-02-20T10:31:27;96478.44;;;13.30;46.51
73383;BME280;61600;48.126;11.542;2023-02-20T10:34:05;96479.03;;;13.27;46.46
73383;BME280;61600;48.126;11.542;2023-02-20T10:36:43;96477.09;;;13.33;46.35
73383;BME280;61600;48.126;11.542;2023-02-20T10:39:17;96473.81;;;13.31;46.37
73383;BME280;61600;48.126;11.542;2023-02-20T10:41:51;96468.72;;;13.09;46.76
73383;BME280;61600;48.126;11.542;2023-02-20T10:44:34;96475.53;;;13.07;46.79
73383;BME280;61600;48.126;11.542;2023-02-20T10:47:06;96467.97;;;12.93;47.08
73383;BME280;61600;48.126;11.542;2023-02-20T10:52:20;96463.84;;;12.96;47.23
73383;BME280;61600;48.126;11.542;2023-02-20T10:54:54;96451.75;;;13.22;46.73
73383;BME280;61600;48.126;11.542;2023-02-20T10:57:29;96445.56;;;13.50;46.07
73383;BME280;61600;48.126;11.542;2023-02-20T11:00:10;96448.03;;;13.86;45.51
73383;BME280;61600;48.126;11.542;2023-02-20T11:02:44;96447.66;;;13.59;46.10
73383;BME280;61600;48.126;11.542;2023-02-20T11:05:16;96446.72;;;13.78;45.41
73383;BME280;61600;48.126;11.542;2023-02-20T11:07:43;96439.19;;;13.94;45.32
73383;BME280;61600;48.126;11.542;2023-02-20T11:10:09;96439.63;;;14.06;45.15
73383;BME280;61600;48.126;11.542;2023-02-20T11:12:51;96428.84;;;14.15;44.82
73383;BME280;61600;48.126;11.542;2023-02-20T11:15:21;96410.06;;;14.61;44.23
73383;BME280;61600;48.126;11.542;2023-02-20T11:17:51;96410.13;;;14.56;43.92
73383;BME280;61600;48.126;11.542;2023-02-20T11:20:39;96407.75;;;14.49;44.18
73383;BME280;61600;48.126;11.542;2023-02-20T11:23:07;96394.97;;;14.87;43.78
73383;BME280;61600;48.126;11.542;2023-02-20T11:25:37;96395.34;;;15.18;43.13
73383;BME280;61600;48.126;11.542;2023-02-20T11:30:40;96392.59;;;15.18;41.85
73383;BME280;61600;48.126;11.542;2023-02-20T11:33:14;96390.97;;;14.98;42.37
73383;BME280;61600;48.126;11.542;2023-02-20T11:35:44;96392.31;;;15.38;41.82
73383;BME280;61600;48.126;11.542;2023-02-20T11:43:21;96374.34;;;15.51;41.33
73383;BME280;61600;48.126;11.542;2023-02-20T11:45:49;96375.53;;;15.77;40.88
73383;BME280;61600;48.126;11.542;2023-02-20T11:48:19;96369.19;;;15.63;41.51
73383;BME280;61600;48.126;11.542;2023-02-20T11:50:47;96357.28;;;15.86;41.32
73383;BME280;61600;48.126;11.542;2023-02-20T11:53:25;96362.44;;;15.87;40.48
73383;BME280;61600;48.126;11.542;2023-02-20T11:56:10;96353.91;;;15.75;39.77
73383;BME280;61600;48.126;11.542;2023-02-20T11:58:36;96357.50;;;15.89;39.47
73383;BME280;61600;48.126;11.542;2023-02-20T12:01:02;96346.84;;;16.15;39.14
73383;BME280;61600;48.126;11.542;2023-02-20T12:03:32;96343.06;;;15.97;40.19
73383;BME280;61600;48.126;11.542;2023-02-20T12:08:56;96336.41;;;16.31;39.70
73383;BME280;61600;48.126;11.542;2023-02-20T12:11:27;96322.66;;;16.17;39.11
73383;BME280;61600;48.126;11.542;2023-02-20T12:13:56;96330.50;;;16.65;39.06
73383;BME280;61600;48.126;11.542;2023-02-20T12:19:35;96317.53;;;17.06;38.39
73383;BME280;61600;48.126;11.542;2023-02-20T12:22:16;96314.34;;;16.77;38.00
73383;BME280;61600;48.126;11.542;2023-02-20T12:38:59;96289.34;;;17.01;37.84
73383;BME280;61600;48.126;11.542;2023-02-20T12:47:29;96279.97;;;17.46;36.75
73383;BME280;61600;48.126;11.542;2023-02-20T12:50:28;96276.16;;;17.11;37.83
73383;BME280;61600;48.126;11.542;2023-02-20T12:53:10;96283.78;;;16.92;37.65
73383;BME280;61600;48.126;11.542;2023-02-20T13:01:12;96267.72;;;17.08;37.67
73383;BME280;61600;48.126;11.542;2023-02-20T13:03:56;96259.56;;;17.16;37.48
73383;BME280;61600;48.126;11.542;2023-02-20T13:06:45;96260.88;;;17.41;37.20
73383;BME280;61600;48.126;11.542;2023-02-20T13:09:58;96255.13;;;17.29;36.82
73383;BME280;61600;48.126;11.542;2023-02-20T13:12:13;96258.56;;;17.57;36.10
73383;BME280;61600;48.126;11.542;2023-02-20T13:18:10;96254.41;;;17.98;36.14
73383;BME280;61600;48.126;11.542;2023-02-20T13:20:45;96255.41;;;18.03;35.40
73383;BME280;61600;48.126;11.542;2023-02-20T13:25:45;96253.75;;;18.41;35.57
73383;BME280;61600;48.126;11.542;2023-02-20T13:30:38;96242.75;;;17.93;36.39
73383;BME280;61600;48.126;11.542;2023-02-20T13:33:15;96244.09;;;18.13;36.38
73383;BME280;61600;48.126;11.542;2023-02-20T13:38:13;96245.63;;;17.88;35.46
73383;BME280;61600;48.126;11.542;2023-02-20T13:40:44;96241.00;;;18.06;35.48
73383;BME280;61600;48.126;11.542;2023-02-20T13:53:42;96242.88;;;17.88;35.51
73383;BME280;61600;48.126;11.542;2023-02-20T13:56:20;96233.66;;;17.92;34.93
73383;BME280;61600;48.126;11.542;2023-02-20T13:58:47;96228.84;;;18.07;34.68
73383;BME280;61600;48.126;11.542;2023-02-20T14:01:13;96225.63;;;18.13;34.49
73383;BME280;61600;48.126;11.542;2023-02-20T14:03:39;96225.63;;;18.05;34.64
73383;BME280;61600;48.126;11.542;2023-02-20T14:06:09;96220.22;;;18.39;34.14
73383;BME280;61600;48.126;11.542;2023-02-20T14:08:41;96220.09;;;18.53;33.91
73383;BME280;61600;48.126;11.542;2023-02-20T14:13:49;96212.13;;;18.42;33.96
73383;BME280;61600;48.126;11.542;2023-02-20T14:18:48;96215.09;;;18.72;34.97
73383;BME280;61600;48.126;11.542;2023-02-20T14:21:19;96211.09;;;18.21;35.54
73383;BME280;61600;48.126;11.542;2023-02-20T14:23:49;96205.13;;;17.80;36.18
73383;BME280;61600;48.126;11.542;2023-02-20T14:28:50;96206.44;;;18.39;35.72
73383;BME280;61600;48.126;11.542;2023-02-20T14:31:24;96189.41;;;18.28;36.07
73383;BME280;61600;48.126;11.542;2023-02-20T14:33:56;96188.91;;;18.18;35.46
73383;BME280;61600;48.126;11.542;2023-02-20T14:36:54;96186.69;;;17.89;35.74
73383;BME280;61600;48.126;11.542;2023-02-20T14:39:34;96181.47;;;18.35;35.89
73383;BME280;61600;48.126;11.542;2023-02-20T14:42:04;96177.53;;;18.11;35.96
73383;BME280;61600;48.126;11.542;2023-02-20T14:44:31;96163.97;;;18.31;35.28
73383;BME280;61600;48.126;11.542;2023-02-20T14:47:07;96172.97;;;18.71;34.45
73383;BME280;61600;48.126;11.542;2023-02-20T14:49:34;96158.16;;;18.41;35.47
73383;BME280;61600;48.126;11.542;2023-02-20T14:52:23;96157.06;;;18.85;34.34
73383;BME280;61600;48.126;11.542;2023-02-20T14:55:03;96160.28;;;18.79;34.35
73383;BME280;61600;48.126;11.542;2023-02-20T14:57:31;96147.34;;;18.88;34.38
73383;BME280;61600;48.126;11.542;2023-02-20T15:02:47;96155.28;;;18.81;34.24
73383;BME280;61600;48.126;11.542;2023-02-20T15:05:17;96149.25;;;19.13;33.89
73383;BME280;61600;48.126;11.542;2023-02-20T15:07:44;96144.97;;;19.33;33.84
73383;BME280;61600;48.126;11.542;2023-02-20T15:10:34;96134.44;;;19.43;34.13
73383;BME280;61600;48.126;11.542;2023-02-20T15:13:12;96130.84;;;19.52;33.40
73383;BME280;61600;48.126;11.542;2023-02-20T15:16:06;96125.75;;;18.90;34.66
73383;BME280;61600;48.126;11.542;2023-02-20T15:18:35;96139.19;;;18.31;35.50